createdAt,value
2023-11-04T00:00:22.308Z,4.62
2023-11-04T00:01:24.865Z,4.59
2023-11-04T00:02:22.249Z,4.57
2023-11-04T00:03:22.389Z,4.54
2023-11-04T00:04:22.356Z,4.51
2023-11-04T00:05:22.277Z,4.48
2023-11-04T00:06:22.369Z,4.44
2023-11-04T00:07:22.207Z,4.41
2023-11-04T00:08:22.217Z,4.38
2023-11-04T00:09:28.530Z,4.35
2023-11-04T00:10:22.210Z,4.34
2023-11-04T00:11:22.162Z,4.33
2023-11-04T00:12:22.213Z,4.32
2023-11-04T00:13:22.166Z,4.33
2023-11-04T00:14:22.138Z,4.33
2023-11-04T00:15:24.963Z,4.34
2023-11-04T00:16:22.128Z,4.36
2023-11-04T00:17:22.133Z,4.39
2023-11-04T00:18:22.185Z,4.43
2023-11-04T00:19:22.187Z,4.45
2023-11-04T00:20:22.111Z,4.46
2023-11-04T00:21:22.098Z,4.47
2023-11-04T00:22:22.101Z,4.47
2023-11-04T00:23:22.056Z,4.48
2023-11-04T00:24:22.058Z,4.49
2023-11-04T00:25:22.038Z,4.50
2023-11-04T00:26:22.051Z,4.50
2023-11-04T00:27:22.350Z,4.51
2023-11-04T00:28:22.017Z,4.51
2023-11-04T00:29:21.985Z,4.51
2023-11-04T00:30:22.019Z,4.50
2023-11-04T00:31:21.970Z,4.50
2023-11-04T00:32:21.986Z,4.49
2023-11-04T00:33:22.046Z,4.49
2023-11-04T00:34:22.050Z,4.48
2023-11-04T00:35:21.928Z,4.48
2023-11-04T00:36:21.943Z,4.48
2023-11-04T00:37:23.162Z,4.47
2023-11-04T00:38:21.906Z,4.48
2023-11-04T00:39:21.912Z,4.49
2023-11-04T00:40:21.865Z,4.51
2023-11-04T00:41:21.865Z,4.52
2023-11-04T00:42:21.900Z,4.53
2023-11-04T00:43:21.842Z,4.52
2023-11-04T00:44:21.874Z,4.50
2023-11-04T00:45:21.826Z,4.49
2023-11-04T00:46:21.835Z,4.49
2023-11-04T00:47:21.830Z,4.49
2023-11-04T00:48:21.841Z,4.49
2023-11-04T00:49:21.835Z,4.50
2023-11-04T00:50:22.104Z,4.51
2023-11-04T00:51:21.763Z,4.53
2023-11-04T00:52:21.754Z,4.53
2023-11-04T00:53:21.738Z,4.53
2023-11-04T00:54:21.768Z,4.53
2023-11-04T00:55:21.753Z,4.52
2023-11-04T00:56:21.715Z,4.51
2023-11-04T00:57:21.718Z,4.50
2023-11-04T00:58:21.669Z,4.49
2023-11-04T00:59:21.661Z,4.47
2023-11-04T01:00:21.702Z,4.47
2023-11-04T01:01:21.677Z,4.46
2023-11-04T01:02:21.661Z,4.45
2023-11-04T01:03:21.679Z,4.44
2023-11-04T01:04:21.697Z,4.42
2023-11-04T01:05:21.743Z,4.39
2023-11-04T01:06:21.636Z,4.35
2023-11-04T01:07:21.641Z,4.31
2023-11-04T01:08:21.576Z,4.27
2023-11-04T01:09:21.582Z,4.23
2023-11-04T01:10:21.559Z,4.21
2023-11-04T01:11:21.566Z,4.20
2023-11-04T01:12:21.576Z,4.20
2023-11-04T01:13:21.575Z,4.21
2023-11-04T01:14:21.515Z,4.21
2023-11-04T01:15:21.538Z,4.21
2023-11-04T01:16:21.495Z,4.20
2023-11-04T01:17:21.525Z,4.18
2023-11-04T01:18:21.546Z,4.16
2023-11-04T01:19:21.562Z,4.12
2023-11-04T01:20:21.477Z,4.08
2023-11-04T01:21:21.481Z,4.04
2023-11-04T01:22:21.456Z,3.99
2023-11-04T01:23:21.454Z,3.95
2023-11-04T01:24:21.454Z,3.91
2023-11-04T01:25:21.422Z,3.85
2023-11-04T01:26:21.380Z,3.80
2023-11-04T01:27:21.410Z,3.76
2023-11-04T01:28:21.366Z,3.73
2023-11-04T01:29:21.370Z,3.71
2023-11-04T01:30:21.418Z,3.69
2023-11-04T01:31:21.355Z,3.67
2023-11-04T01:32:21.357Z,3.65
2023-11-04T01:33:21.484Z,3.61
2023-11-04T01:34:21.417Z,3.58
2023-11-04T01:35:21.320Z,3.54
2023-11-04T01:36:21.345Z,3.50
2023-11-04T01:37:21.298Z,3.46
2023-11-04T01:38:21.275Z,3.40
2023-11-04T01:39:21.302Z,3.34
2023-11-04T01:40:21.262Z,3.28
2023-11-04T01:41:21.232Z,3.24
2023-11-04T01:42:21.360Z,3.21
2023-11-04T01:43:21.223Z,3.19
2023-11-04T01:44:21.201Z,3.17
2023-11-04T01:45:21.232Z,3.13
2023-11-04T01:46:21.188Z,3.07
2023-11-04T01:47:21.176Z,2.99
2023-11-04T01:48:21.268Z,2.93
2023-11-04T01:49:21.239Z,2.89
2023-11-04T01:50:21.145Z,2.86
2023-11-04T01:51:21.161Z,2.83
2023-11-04T01:52:21.134Z,2.81
2023-11-04T01:53:21.164Z,2.79
2023-11-04T01:54:21.187Z,2.77
2023-11-04T01:55:21.181Z,2.74
2023-11-04T01:56:21.081Z,2.71
2023-11-04T01:57:21.134Z,2.67
2023-11-04T01:58:21.078Z,2.63
2023-11-04T01:59:21.091Z,2.60
2023-11-04T02:00:21.081Z,2.57
2023-11-04T02:01:21.030Z,2.55
2023-11-04T02:02:21.017Z,2.54
2023-11-04T02:03:21.061Z,2.52
2023-11-04T02:04:21.144Z,2.51
2023-11-04T02:05:20.998Z,2.49
2023-11-04T02:06:21.041Z,2.47
2023-11-04T02:07:20.974Z,2.45
2023-11-04T02:08:20.959Z,2.43
2023-11-04T02:09:20.971Z,2.40
2023-11-04T02:10:20.978Z,2.37
2023-11-04T02:11:20.931Z,2.34
2023-11-04T02:12:20.954Z,2.32
2023-11-04T02:13:20.906Z,2.29
2023-11-04T02:14:20.926Z,2.26
2023-11-04T02:15:20.942Z,2.24
2023-11-04T02:16:20.902Z,2.22
2023-11-04T02:17:20.882Z,2.17
2023-11-04T02:18:20.915Z,2.09
2023-11-04T02:19:20.944Z,2.01
2023-11-04T02:20:20.863Z,1.95
2023-11-04T02:21:20.869Z,1.92
2023-11-04T02:22:22.225Z,1.92
2023-11-04T02:23:20.876Z,1.95
2023-11-04T02:24:20.821Z,2.00
2023-11-04T02:25:20.797Z,2.06
2023-11-04T02:26:20.788Z,2.10
2023-11-04T02:27:20.781Z,2.14
2023-11-04T02:28:20.767Z,2.17
2023-11-04T02:29:20.746Z,2.19
2023-11-04T02:30:20.751Z,2.20
2023-11-04T02:31:20.730Z,2.20
2023-11-04T02:32:20.767Z,2.19
2023-11-04T02:33:20.760Z,2.20
2023-11-04T02:34:20.744Z,2.21
2023-11-04T02:35:20.693Z,2.21
2023-11-04T02:36:20.758Z,2.20
2023-11-04T02:37:20.712Z,2.19
2023-11-04T02:38:20.668Z,2.18
2023-11-04T02:39:20.760Z,2.16
2023-11-04T02:40:20.642Z,2.15
2023-11-04T02:41:20.695Z,2.14
2023-11-04T02:42:20.652Z,2.13
2023-11-04T02:43:20.626Z,2.11
2023-11-04T02:44:20.603Z,2.08
2023-11-04T02:45:20.609Z,2.05
2023-11-04T02:46:20.587Z,2.02
2023-11-04T02:47:20.583Z,1.99
2023-11-04T02:48:20.657Z,1.94
2023-11-04T02:49:20.576Z,1.90
2023-11-04T02:50:20.547Z,1.86
2023-11-04T02:51:20.605Z,1.84
2023-11-04T02:52:20.542Z,1.83
2023-11-04T02:53:20.510Z,1.83
2023-11-04T02:54:20.622Z,1.83
2023-11-04T02:55:20.487Z,1.82
2023-11-04T02:56:20.472Z,1.80
2023-11-04T02:57:20.495Z,1.78
2023-11-04T02:58:20.469Z,1.76
2023-11-04T02:59:20.462Z,1.76
2023-11-04T03:00:20.500Z,1.75
2023-11-04T03:01:20.646Z,1.74
2023-11-04T03:02:20.431Z,1.73
2023-11-04T03:03:20.531Z,1.72
2023-11-04T03:04:20.544Z,1.69
2023-11-04T03:05:27.822Z,1.67
2023-11-04T03:06:20.399Z,1.64
2023-11-04T03:07:20.387Z,1.61
2023-11-04T03:08:20.372Z,1.57
2023-11-04T03:09:20.441Z,1.54
2023-11-04T03:10:20.327Z,1.52
2023-11-04T03:11:20.321Z,1.50
2023-11-04T03:12:20.328Z,1.47
2023-11-04T03:13:20.349Z,1.45
2023-11-04T03:14:20.284Z,1.42
2023-11-04T03:15:20.293Z,1.39
2023-11-04T03:16:20.296Z,1.37
2023-11-04T03:17:20.290Z,1.34
2023-11-04T03:18:20.444Z,1.32
2023-11-04T03:19:20.304Z,1.31
2023-11-04T03:20:20.229Z,1.31
2023-11-04T03:21:20.232Z,1.32
2023-11-04T03:22:20.203Z,1.33
2023-11-04T03:23:20.207Z,1.35
2023-11-04T03:24:20.215Z,1.35
2023-11-04T03:25:20.220Z,1.34
2023-11-04T03:26:20.222Z,1.33
2023-11-04T03:27:20.173Z,1.30
2023-11-04T03:28:20.156Z,1.27
2023-11-04T03:29:20.123Z,1.24
2023-11-04T03:30:20.198Z,1.21
2023-11-04T03:31:20.109Z,1.18
2023-11-04T03:32:20.118Z,1.16
2023-11-04T03:33:20.159Z,1.15
2023-11-04T03:34:20.194Z,1.14
2023-11-04T03:35:20.079Z,1.15
2023-11-04T03:36:20.088Z,1.18
2023-11-04T03:37:20.051Z,1.21
2023-11-04T03:38:20.052Z,1.24
2023-11-04T03:39:20.060Z,1.26
2023-11-04T03:40:20.038Z,1.25
2023-11-04T03:41:20.046Z,1.22
2023-11-04T03:42:20.073Z,1.20
2023-11-04T03:43:19.999Z,1.20
2023-11-04T03:44:19.974Z,1.21
2023-11-04T03:45:20.000Z,1.22
2023-11-04T03:46:19.955Z,1.24
2023-11-04T03:47:20.091Z,1.26
2023-11-04T03:48:20.111Z,1.29
2023-11-04T03:49:20.065Z,1.30
2023-11-04T03:50:19.922Z,1.30
2023-11-04T03:51:19.969Z,1.31
2023-11-04T03:52:19.915Z,1.32
2023-11-04T03:53:19.881Z,1.32
2023-11-04T03:54:19.951Z,1.30
2023-11-04T03:55:19.860Z,1.28
2023-11-04T03:56:19.875Z,1.26
2023-11-04T03:57:19.883Z,1.25
2023-11-04T03:58:19.901Z,1.24
2023-11-04T03:59:19.823Z,1.22
2023-11-04T04:00:19.846Z,1.20
2023-11-04T04:01:19.803Z,1.17
2023-11-04T04:02:19.813Z,1.15
2023-11-04T04:03:19.885Z,1.13
2023-11-04T04:04:19.931Z,1.11
2023-11-04T04:05:19.784Z,1.10
2023-11-04T04:06:19.771Z,1.09
2023-11-04T04:07:19.766Z,1.08
2023-11-04T04:08:19.762Z,1.06
2023-11-04T04:09:19.725Z,1.04
2023-11-04T04:10:19.703Z,1.02
2023-11-04T04:11:19.742Z,1.02
2023-11-04T04:12:19.686Z,1.03
2023-11-04T04:13:19.698Z,1.04
2023-11-04T04:14:19.654Z,1.06
2023-11-04T04:15:19.654Z,1.09
2023-11-04T04:16:19.645Z,1.11
2023-11-04T04:17:19.620Z,1.13
2023-11-04T04:18:19.680Z,1.13
2023-11-04T04:19:19.702Z,1.13
2023-11-04T04:20:19.603Z,1.14
2023-11-04T04:21:19.576Z,1.15
2023-11-04T04:22:19.569Z,1.16
2023-11-04T04:23:19.580Z,1.16
2023-11-04T04:24:19.569Z,1.17
2023-11-04T04:25:19.599Z,1.20
2023-11-04T04:26:19.570Z,1.23
2023-11-04T04:27:19.521Z,1.25
2023-11-04T04:28:19.524Z,1.27
2023-11-04T04:29:19.502Z,1.29
2023-11-04T04:30:19.487Z,1.31
2023-11-04T04:31:19.501Z,1.32
2023-11-04T04:32:19.467Z,1.30
2023-11-04T04:33:19.566Z,1.26
2023-11-04T04:34:19.538Z,1.21
2023-11-04T04:35:19.438Z,1.18
2023-11-04T04:36:19.466Z,1.14
2023-11-04T04:37:19.452Z,1.09
2023-11-04T04:38:19.415Z,1.03
2023-11-04T04:39:19.401Z,0.97
2023-11-04T04:40:19.407Z,0.93
2023-11-04T04:41:19.594Z,0.91
2023-11-04T04:42:19.371Z,0.88
2023-11-04T04:43:19.390Z,0.86
2023-11-04T04:44:19.373Z,0.86
2023-11-04T04:45:19.346Z,0.89
2023-11-04T04:46:19.332Z,0.94
2023-11-04T04:47:19.322Z,0.99
2023-11-04T04:48:19.297Z,1.05
2023-11-04T04:49:19.397Z,1.09
2023-11-04T04:50:19.287Z,1.12
2023-11-04T04:51:19.267Z,1.14
2023-11-04T04:52:19.272Z,1.17
2023-11-04T04:53:19.256Z,1.21
2023-11-04T04:54:19.264Z,1.24
2023-11-04T04:55:19.279Z,1.25
2023-11-04T04:56:19.216Z,1.25
2023-11-04T04:57:19.226Z,1.24
2023-11-04T04:58:19.214Z,1.24
2023-11-04T04:59:19.194Z,1.23
2023-11-04T05:00:19.202Z,1.24
2023-11-04T05:01:19.205Z,1.26
2023-11-04T05:02:19.131Z,1.28
2023-11-04T05:03:19.279Z,1.29
2023-11-04T05:04:19.177Z,1.27
2023-11-04T05:05:19.290Z,1.23
2023-11-04T05:06:19.095Z,1.18
2023-11-04T05:07:19.144Z,1.11
2023-11-04T05:08:19.110Z,1.05
2023-11-04T05:09:19.071Z,0.99
2023-11-04T05:10:19.070Z,0.94
2023-11-04T05:11:19.061Z,0.91
2023-11-04T05:12:19.105Z,0.87
2023-11-04T05:13:19.048Z,0.84
2023-11-04T05:14:19.036Z,0.81
2023-11-04T05:15:19.053Z,0.82
2023-11-04T05:16:19.066Z,0.85
2023-11-04T05:17:19.058Z,0.90
2023-11-04T05:18:19.064Z,0.95
2023-11-04T05:19:19.080Z,1.01
2023-11-04T05:20:18.973Z,1.05
2023-11-04T05:21:18.988Z,1.09
2023-11-04T05:22:18.985Z,1.11
2023-11-04T05:23:18.968Z,1.13
2023-11-04T05:24:19.012Z,1.13
2023-11-04T05:25:18.932Z,1.14
2023-11-04T05:26:18.975Z,1.16
2023-11-04T05:27:18.959Z,1.16
2023-11-04T05:28:18.985Z,1.16
2023-11-04T05:29:18.950Z,1.16
2023-11-04T05:30:18.965Z,1.15
2023-11-04T05:31:18.883Z,1.12
2023-11-04T05:32:19.079Z,1.10
2023-11-04T05:33:19.134Z,1.08
2023-11-04T05:34:18.943Z,1.07
2023-11-04T05:35:18.958Z,1.05
2023-11-04T05:36:18.872Z,1.02
2023-11-04T05:37:18.869Z,0.99
2023-11-04T05:38:18.960Z,0.96
2023-11-04T05:39:18.888Z,0.92
2023-11-04T05:40:18.957Z,0.89
2023-11-04T05:41:18.773Z,0.87
2023-11-04T05:42:18.778Z,0.84
2023-11-04T05:43:18.743Z,0.82
2023-11-04T05:44:18.710Z,0.80
2023-11-04T05:45:18.717Z,0.79
2023-11-04T05:46:18.766Z,0.80
2023-11-04T05:47:18.690Z,0.83
2023-11-04T05:48:18.804Z,0.87
2023-11-04T05:49:18.746Z,0.91
2023-11-04T05:50:18.667Z,0.95
2023-11-04T05:51:18.652Z,0.98
2023-11-04T05:52:18.652Z,1.02
2023-11-04T05:53:18.616Z,1.05
2023-11-04T05:54:18.639Z,1.09
2023-11-04T05:55:18.619Z,1.13
2023-11-04T05:56:18.590Z,1.17
2023-11-04T05:57:18.610Z,1.20
2023-11-04T05:58:18.568Z,1.22
2023-11-04T05:59:18.566Z,1.21
2023-11-04T06:00:18.572Z,1.19
2023-11-04T06:01:18.527Z,1.16
2023-11-04T06:02:18.546Z,1.13
2023-11-04T06:03:18.529Z,1.10
2023-11-04T06:04:18.601Z,1.08
2023-11-04T06:05:18.542Z,1.06
2023-11-04T06:06:18.512Z,1.07
2023-11-04T06:07:18.568Z,1.09
2023-11-04T06:08:18.498Z,1.14
2023-11-04T06:09:18.439Z,1.19
2023-11-04T06:10:18.438Z,1.28
2023-11-04T06:11:21.053Z,1.41
2023-11-04T06:12:18.436Z,1.58
2023-11-04T06:13:18.409Z,1.77
2023-11-04T06:14:18.447Z,1.94
2023-11-04T06:15:18.433Z,2.04
2023-11-04T06:16:18.380Z,2.09
2023-11-04T06:17:18.377Z,2.14
2023-11-04T06:18:18.495Z,2.21
2023-11-04T06:19:18.465Z,2.25
2023-11-04T06:20:18.327Z,2.20
2023-11-04T06:21:18.344Z,2.08
2023-11-04T06:22:18.333Z,1.97
2023-11-04T06:23:18.302Z,1.91
2023-11-04T06:24:18.332Z,1.88
2023-11-04T06:25:18.280Z,1.89
2023-11-04T06:26:18.268Z,1.97
2023-11-04T06:27:18.281Z,2.12
2023-11-04T06:28:18.266Z,2.30
2023-11-04T06:29:18.393Z,2.49
2023-11-04T06:30:18.247Z,2.65
2023-11-04T06:31:18.279Z,2.76
2023-11-04T06:32:18.199Z,2.85
2023-11-04T06:33:18.225Z,2.94
2023-11-04T06:34:18.327Z,3.07
2023-11-04T06:35:18.315Z,3.23
2023-11-04T06:36:18.164Z,3.40
2023-11-04T06:37:18.188Z,3.59
2023-11-04T06:38:18.152Z,3.77
2023-11-04T06:39:18.170Z,3.82
2023-11-04T06:40:18.131Z,3.75
2023-11-04T06:41:18.303Z,3.68
2023-11-04T06:42:18.123Z,3.69
2023-11-04T06:43:18.124Z,3.76
2023-11-04T06:44:18.129Z,3.90
2023-11-04T06:45:18.097Z,4.08
2023-11-04T06:46:18.082Z,4.29
2023-11-04T06:47:18.070Z,4.53
2023-11-04T06:48:18.143Z,4.75
2023-11-04T06:49:18.067Z,4.91
2023-11-04T06:50:18.079Z,5.08
2023-11-04T06:51:18.044Z,5.30
2023-11-04T06:52:18.031Z,5.50
2023-11-04T06:53:18.021Z,5.69
2023-11-04T06:54:18.005Z,5.89
2023-11-04T06:55:18.033Z,6.11
2023-11-04T06:56:17.998Z,6.34
2023-11-04T06:57:17.952Z,6.58
2023-11-04T06:58:17.961Z,6.80
2023-11-04T06:59:17.968Z,7.03
2023-11-04T07:00:17.934Z,7.27
2023-11-04T07:01:17.987Z,7.48
2023-11-04T07:02:17.911Z,7.66
2023-11-04T07:03:18.007Z,7.83
2023-11-04T07:04:17.920Z,7.97
2023-11-04T07:05:17.914Z,8.02
2023-11-04T07:06:17.889Z,8.07
2023-11-04T07:07:17.917Z,8.19
2023-11-04T07:08:17.843Z,8.37
2023-11-04T07:09:17.847Z,8.56
2023-11-04T07:10:17.829Z,8.72
2023-11-04T07:11:17.813Z,8.87
2023-11-04T07:12:17.831Z,9.05
2023-11-04T07:13:17.903Z,9.23
2023-11-04T07:14:17.790Z,9.41
2023-11-04T07:15:17.758Z,9.55
2023-11-04T07:16:17.770Z,9.67
2023-11-04T07:17:17.740Z,9.79
2023-11-04T07:18:17.817Z,9.89
2023-11-04T07:19:17.850Z,9.99
2023-11-04T07:20:17.720Z,10.09
2023-11-04T07:21:17.740Z,10.22
2023-11-04T07:22:17.706Z,10.37
2023-11-04T07:23:17.702Z,10.53
2023-11-04T07:24:17.665Z,10.75
2023-11-04T07:25:17.705Z,11.06
2023-11-04T07:26:17.660Z,11.45
2023-11-04T07:27:17.645Z,11.85
2023-11-04T07:28:17.634Z,12.21
2023-11-04T07:29:17.629Z,12.42
2023-11-04T07:30:17.635Z,12.45
2023-11-04T07:31:17.626Z,12.36
2023-11-04T07:32:17.605Z,12.21
2023-11-04T07:33:17.608Z,11.97
2023-11-04T07:34:17.734Z,11.74
2023-11-04T07:35:17.573Z,11.60
2023-11-04T07:36:17.582Z,11.46
2023-11-04T07:37:17.549Z,11.23
2023-11-04T07:38:17.528Z,10.96
2023-11-04T07:39:17.526Z,10.72
2023-11-04T07:40:17.512Z,10.51
2023-11-04T07:41:17.495Z,10.33
2023-11-04T07:42:17.502Z,10.15
2023-11-04T07:43:17.472Z,10.05
2023-11-04T07:44:17.476Z,10.09
2023-11-04T07:45:17.462Z,10.26
2023-11-04T07:46:17.460Z,10.50
2023-11-04T07:47:17.511Z,10.68
2023-11-04T07:48:17.548Z,10.71
2023-11-04T07:49:17.468Z,10.70
2023-11-04T07:50:17.409Z,10.79
2023-11-04T07:51:17.403Z,10.95
2023-11-04T07:52:17.386Z,11.14
2023-11-04T07:53:17.387Z,11.31
2023-11-04T07:54:17.385Z,11.48
2023-11-04T07:55:17.387Z,11.64
2023-11-04T07:56:17.337Z,11.80
2023-11-04T07:57:17.308Z,11.98
2023-11-04T07:58:17.338Z,12.14
2023-11-04T07:59:17.324Z,12.23
2023-11-04T08:00:17.331Z,12.26
2023-11-04T08:01:17.312Z,12.22
2023-11-04T08:02:17.272Z,12.00
2023-11-04T08:03:17.347Z,11.49
2023-11-04T08:04:17.290Z,10.89
2023-11-04T08:05:17.351Z,10.24
2023-11-04T08:06:17.256Z,9.69
2023-11-04T08:07:17.229Z,9.33
2023-11-04T08:08:17.190Z,9.11
2023-11-04T08:09:17.227Z,8.96
2023-11-04T08:10:17.213Z,8.85
2023-11-04T08:11:17.190Z,8.74
2023-11-04T08:12:17.220Z,8.67
2023-11-04T08:13:17.209Z,8.65
2023-11-04T08:14:17.165Z,8.68
2023-11-04T08:15:17.250Z,8.74
2023-11-04T08:16:17.150Z,8.79
2023-11-04T08:17:17.132Z,8.77
2023-11-04T08:18:17.154Z,8.79
2023-11-04T08:19:17.241Z,8.84
2023-11-04T08:20:17.109Z,8.82
2023-11-04T08:21:17.217Z,8.84
2023-11-04T08:22:17.205Z,8.99
2023-11-04T08:23:17.076Z,9.13
2023-11-04T08:24:17.052Z,9.23
2023-11-04T08:25:17.074Z,9.23
2023-11-04T08:26:17.028Z,9.19
2023-11-04T08:27:17.015Z,9.24
2023-11-04T08:28:17.034Z,9.38
2023-11-04T08:29:17.003Z,9.57
2023-11-04T08:30:17.036Z,9.73
2023-11-04T08:31:16.975Z,9.86
2023-11-04T08:32:16.959Z,9.95
2023-11-04T08:33:17.069Z,10.03
2023-11-04T08:34:17.024Z,10.11
2023-11-04T08:35:16.932Z,10.13
2023-11-04T08:36:16.952Z,10.07
2023-11-04T08:37:16.911Z,10.07
2023-11-04T08:38:16.913Z,10.14
2023-11-04T08:39:16.881Z,10.12
2023-11-04T08:40:16.895Z,9.98
2023-11-04T08:41:16.923Z,9.85
2023-11-04T08:42:16.863Z,9.79
2023-11-04T08:43:16.843Z,9.81
2023-11-04T08:44:16.836Z,9.76
2023-11-04T08:45:16.849Z,9.68
2023-11-04T08:46:16.810Z,9.55
2023-11-04T08:47:16.865Z,9.47
2023-11-04T08:48:16.913Z,9.55
2023-11-04T08:49:16.882Z,9.67
2023-11-04T08:50:16.825Z,9.77
2023-11-04T08:51:16.771Z,9.89
2023-11-04T08:52:16.782Z,10.03
2023-11-04T08:53:16.768Z,10.16
2023-11-04T08:54:16.737Z,10.31
2023-11-04T08:55:16.719Z,10.35
2023-11-04T08:56:16.727Z,10.20
2023-11-04T08:57:16.713Z,9.98
2023-11-04T08:58:16.722Z,9.74
2023-11-04T08:59:16.858Z,9.45
2023-11-04T09:00:16.863Z,9.10
2023-11-04T09:01:16.650Z,8.72
2023-11-04T09:02:16.656Z,8.48
2023-11-04T09:03:16.641Z,8.47
2023-11-04T09:04:23.987Z,8.58
2023-11-04T09:05:19.790Z,8.64
2023-11-04T09:06:16.742Z,8.63
2023-11-04T09:07:16.629Z,8.61
2023-11-04T09:08:16.586Z,8.56
2023-11-04T09:09:16.576Z,8.55
2023-11-04T09:10:16.646Z,8.56
2023-11-04T09:11:16.558Z,8.61
2023-11-04T09:12:20.608Z,8.65
2023-11-04T09:13:16.525Z,8.69
2023-11-04T09:14:16.552Z,8.70
2023-11-04T09:15:16.546Z,8.67
2023-11-04T09:16:16.499Z,8.68
2023-11-04T09:17:16.480Z,8.82
2023-11-04T09:18:19.816Z,9.03
2023-11-04T09:19:16.587Z,9.25
2023-11-04T09:20:16.493Z,9.49
2023-11-04T09:21:16.468Z,9.77
2023-11-04T09:22:16.534Z,10.11
2023-11-04T09:23:16.420Z,10.51
2023-11-04T09:24:16.430Z,10.92
2023-11-04T09:25:16.460Z,11.24
2023-11-04T09:26:16.421Z,11.48
2023-11-04T09:27:16.404Z,11.73
2023-11-04T09:28:16.402Z,11.95
2023-11-04T09:29:16.359Z,12.08
2023-11-04T09:30:16.383Z,12.12
2023-11-04T09:31:16.356Z,12.13
2023-11-04T09:32:16.331Z,11.95
2023-11-04T09:33:16.411Z,11.69
2023-11-04T09:34:16.449Z,11.37
2023-11-04T09:35:16.313Z,11.06
2023-11-04T09:36:16.307Z,11.01
2023-11-04T09:37:16.294Z,11.16
2023-11-04T09:38:16.268Z,11.36
2023-11-04T09:39:16.248Z,11.51
2023-11-04T09:40:16.292Z,11.57
2023-11-04T09:41:16.237Z,11.55
2023-11-04T09:42:16.309Z,11.55
2023-11-04T09:43:16.249Z,11.61
2023-11-04T09:44:16.202Z,11.76
2023-11-04T09:45:16.225Z,11.94
2023-11-04T09:46:16.179Z,12.13
2023-11-04T09:47:16.189Z,12.28
2023-11-04T09:48:16.212Z,12.37
2023-11-04T09:49:16.251Z,12.30
2023-11-04T09:50:16.147Z,12.07
2023-11-04T09:51:16.144Z,11.74
2023-11-04T09:52:16.124Z,11.30
2023-11-04T09:53:16.120Z,10.97
2023-11-04T09:54:16.101Z,10.88
2023-11-04T09:55:16.093Z,11.02
2023-11-04T09:56:16.116Z,11.26
2023-11-04T09:57:16.085Z,11.38
2023-11-04T09:58:16.117Z,11.42
2023-11-04T09:59:16.055Z,11.47
2023-11-04T10:00:16.037Z,11.60
2023-11-04T10:01:16.035Z,11.87
2023-11-04T10:02:16.008Z,12.26
2023-11-04T10:03:16.055Z,12.62
2023-11-04T10:04:19.366Z,12.83
2023-11-04T10:05:16.050Z,12.95
2023-11-04T10:06:16.015Z,13.04
2023-11-04T10:07:15.966Z,13.12
2023-11-04T10:08:15.949Z,13.12
2023-11-04T10:09:15.943Z,13.12
2023-11-04T10:10:22.537Z,13.26
2023-11-04T10:11:15.951Z,13.44
2023-11-04T10:12:15.902Z,13.55
2023-11-04T10:13:15.915Z,13.56
2023-11-04T10:14:15.892Z,13.70
2023-11-04T10:15:15.926Z,13.96
2023-11-04T10:16:15.992Z,14.15
2023-11-04T10:17:15.848Z,14.29
2023-11-04T10:18:15.840Z,14.38
2023-11-04T10:19:15.880Z,14.34
2023-11-04T10:20:15.828Z,14.27
2023-11-04T10:21:15.845Z,14.30
2023-11-04T10:22:15.850Z,14.50
2023-11-04T10:23:15.780Z,14.74
2023-11-04T10:24:15.774Z,14.97
2023-11-04T10:25:15.778Z,15.25
2023-11-04T10:26:15.873Z,15.59
2023-11-04T10:27:15.781Z,15.92
2023-11-04T10:28:15.764Z,16.26
2023-11-04T10:29:15.730Z,16.60
2023-11-04T10:30:15.726Z,16.90
2023-11-04T10:31:15.717Z,17.19
2023-11-04T10:32:15.702Z,17.49
2023-11-04T10:33:15.767Z,17.72
2023-11-04T10:34:15.724Z,17.65
2023-11-04T10:35:15.670Z,17.23
2023-11-04T10:36:15.799Z,16.73
2023-11-04T10:37:16.031Z,16.18
2023-11-04T10:38:15.665Z,15.75
2023-11-04T10:39:15.658Z,15.51
2023-11-04T10:40:15.727Z,15.34
2023-11-04T10:41:15.595Z,15.06
2023-11-04T10:42:15.609Z,14.70
2023-11-04T10:43:15.591Z,14.32
2023-11-04T10:44:15.570Z,14.04
2023-11-04T10:45:15.618Z,13.92
2023-11-04T10:46:15.629Z,13.74
2023-11-04T10:47:15.537Z,13.40
2023-11-04T10:48:15.564Z,12.97
2023-11-04T10:49:15.532Z,12.59
2023-11-04T10:50:15.529Z,12.29
2023-11-04T10:51:15.558Z,12.23
2023-11-04T10:52:15.549Z,12.30
2023-11-04T10:53:15.482Z,12.37
2023-11-04T10:54:15.472Z,12.46
2023-11-04T10:55:15.511Z,12.51
2023-11-04T10:56:15.455Z,12.37
2023-11-04T10:57:15.502Z,12.25
2023-11-04T10:58:15.450Z,12.29
2023-11-04T10:59:15.431Z,12.33
2023-11-04T11:00:15.783Z,12.25
2023-11-04T11:01:15.390Z,12.24
2023-11-04T11:02:15.403Z,12.30
2023-11-04T11:03:15.416Z,12.31
2023-11-04T11:04:15.509Z,12.37
2023-11-04T11:05:15.373Z,12.44
2023-11-04T11:06:15.351Z,12.37
2023-11-04T11:07:15.372Z,12.25
2023-11-04T11:08:15.359Z,12.23
2023-11-04T11:09:15.305Z,12.34
2023-11-04T11:10:15.368Z,12.51
2023-11-04T11:11:15.560Z,12.48
2023-11-04T11:12:15.300Z,12.28
2023-11-04T11:13:15.279Z,12.13
2023-11-04T11:14:15.295Z,12.10
2023-11-04T11:15:15.271Z,12.19
2023-11-04T11:16:15.295Z,12.41
2023-11-04T11:17:15.241Z,12.79
2023-11-04T11:18:15.294Z,13.17
2023-11-04T11:19:15.308Z,13.51
2023-11-04T11:20:15.235Z,13.85
2023-11-04T11:21:15.185Z,14.23
2023-11-04T11:22:15.207Z,14.54
2023-11-04T11:23:15.175Z,14.70
2023-11-04T11:24:15.180Z,14.76
2023-11-04T11:25:15.205Z,14.77
2023-11-04T11:26:15.186Z,14.76
2023-11-04T11:27:15.116Z,14.74
2023-11-04T11:28:15.148Z,14.78
2023-11-04T11:29:15.102Z,14.88
2023-11-04T11:30:15.092Z,14.99
2023-11-04T11:31:15.334Z,15.08
2023-11-04T11:32:15.117Z,15.13
2023-11-04T11:33:15.093Z,15.17
2023-11-04T11:34:15.175Z,15.22
2023-11-04T11:35:15.035Z,15.26
2023-11-04T11:36:16.193Z,15.21
2023-11-04T11:37:15.063Z,15.11
2023-11-04T11:38:15.070Z,15.09
2023-11-04T11:39:14.982Z,15.14
2023-11-04T11:40:15.310Z,15.16
2023-11-04T11:41:15.136Z,15.16
2023-11-04T11:42:14.969Z,15.21
2023-11-04T11:43:15.046Z,15.29
2023-11-04T11:44:14.995Z,15.32
2023-11-04T11:45:14.940Z,15.41
2023-11-04T11:46:15.137Z,15.54
2023-11-04T11:47:14.908Z,15.62
2023-11-04T11:48:15.070Z,15.66
2023-11-04T11:49:14.940Z,15.74
2023-11-04T11:50:14.884Z,15.73
2023-11-04T11:51:14.867Z,15.59
2023-11-04T11:52:14.925Z,15.40
2023-11-04T11:53:14.852Z,15.19
2023-11-04T11:54:14.824Z,14.96
2023-11-04T11:55:14.920Z,14.67
2023-11-04T11:56:14.827Z,14.41
2023-11-04T11:57:14.807Z,14.35
2023-11-04T11:58:14.812Z,14.54
2023-11-04T11:59:14.782Z,14.85
2023-11-04T12:00:14.830Z,15.12
2023-11-04T12:01:14.852Z,15.26
2023-11-04T12:02:14.771Z,15.29
2023-11-04T12:03:14.758Z,15.32
2023-11-04T12:04:14.810Z,15.40
2023-11-04T12:05:14.761Z,15.52
2023-11-04T12:06:14.766Z,15.52
2023-11-04T12:07:14.790Z,15.28
2023-11-04T12:08:14.690Z,14.87
2023-11-04T12:09:14.864Z,14.47
2023-11-04T12:10:14.807Z,14.13
2023-11-04T12:11:14.829Z,13.92
2023-11-04T12:12:14.688Z,13.89
2023-11-04T12:13:15.309Z,14.00
2023-11-04T12:14:14.680Z,14.15
2023-11-04T12:15:14.854Z,14.14
2023-11-04T12:16:14.752Z,13.94
2023-11-04T12:17:14.681Z,13.76
2023-11-04T12:18:14.812Z,13.58
2023-11-04T12:19:15.298Z,13.38
2023-11-04T12:21:53.691Z,13.24
2023-11-04T12:21:58.811Z,13.19
2023-11-04T12:22:14.595Z,13.23
2023-11-04T12:23:14.637Z,13.31
2023-11-04T12:24:14.589Z,13.51
2023-11-04T12:25:14.684Z,13.74
2023-11-04T12:26:14.552Z,13.88
2023-11-04T12:27:14.540Z,13.86
2023-11-04T12:28:14.531Z,13.71
2023-11-04T12:29:14.468Z,13.51
2023-11-04T12:30:14.494Z,13.39
2023-11-04T12:31:14.580Z,13.41
2023-11-04T12:32:14.548Z,13.55
2023-11-04T12:33:14.442Z,13.71
2023-11-04T12:34:14.478Z,13.80
2023-11-04T12:35:14.393Z,13.84
2023-11-04T12:36:14.527Z,13.91
2023-11-04T12:37:14.430Z,14.12
2023-11-04T12:38:14.408Z,14.36
2023-11-04T12:39:14.484Z,14.56
2023-11-04T12:40:14.513Z,14.72
2023-11-04T12:41:14.392Z,14.70
2023-11-04T12:42:14.329Z,14.62
2023-11-04T12:43:14.437Z,14.44
2023-11-04T12:44:14.340Z,14.18
2023-11-04T12:45:14.385Z,14.05
2023-11-04T12:46:14.344Z,14.05
2023-11-04T12:47:14.291Z,13.96
2023-11-04T12:48:14.333Z,13.76
2023-11-04T12:49:14.325Z,13.70
2023-11-04T12:50:14.287Z,13.67
2023-11-04T12:51:14.947Z,13.53
2023-11-04T12:52:14.280Z,13.38
2023-11-04T12:53:14.208Z,13.32
2023-11-04T12:54:14.218Z,13.36
2023-11-04T12:55:14.327Z,13.45
2023-11-04T12:56:14.175Z,13.54
2023-11-04T12:57:14.266Z,13.50
2023-11-04T12:58:14.215Z,13.46
2023-11-04T12:59:14.150Z,13.63
2023-11-04T13:00:14.149Z,13.96
2023-11-04T13:01:14.189Z,14.26
2023-11-04T13:02:14.122Z,14.46
2023-11-04T13:03:14.248Z,14.53
2023-11-04T13:04:14.184Z,14.54
2023-11-04T13:05:14.470Z,14.64
2023-11-04T13:06:14.073Z,14.80
2023-11-04T13:07:14.765Z,14.93
2023-11-04T13:08:14.064Z,15.01